KOQT METAR and TAF weather

Enter ICAO airport designator
Station Type Date Time Source
KOQT METAR 2019/06/18 11:53 UTC NOAA

KOQT 181153Z AUTO 00000KT 6SM -RA BR FEW004 BKN036 OVC120 22/20 A3003 RMK AO2 RAB27 SLP154 P0001 60005 70023 T02170200 10222 20217 53004


Station Type Date Time Source
KOQT Decoded METAR 2019/06/18 11:53 UTC NOAA

OAK RIDGE, TN, United States (KOQT) 36-01N 84-14W
Jun 18, 2019 - 07:53 AM EDT / 2019.06.18 1153 UTC
Wind: Calm:0
Visibility: 6 mile(s):0
Sky conditions: overcast
Weather: light rain; mist
Precipitation last hour: 0.01 inches
Temperature: 71.1 F (21.7 C)
Dew Point: 68.0 F (20.0 C)
Relative Humidity: 90%
Pressure (altimeter): 30.03 in. Hg (1016 hPa)
Pressure tendency: 0.01 inches (0.4 hPa) higher than three hours ago
ob: KOQT 181153Z AUTO 00000KT 6SM -RA BR FEW004 BKN036 OVC120 22/20 A3003 RMK AO2 RAB27 SLP154 P0001 60005 70023 T02170200 10222 20217 53004
cycle: 12

Station Type Date Time Source
KOQT TAF UTC NOAA

Error!

Example: see airport list